Time;durP1;ratioP1;P1;durP2;ratioP2;P2;SDS_P1;SDS_P2;PMS_P1;PMS_P2;Temp;Humidity;BMP_temperature;BMP_pressure;BME280_temperature;BME280_humidity;BME280_pressure;Samples;Min_cycle;Max_cycle;Signal;HPM_P1;HPM_P2
2021/04/21 00:01:02;;;;;;;30.27;23.00;;;;;;;;;;736871;189;919089;-64
2021/04/21 00:03:28;;;;;;;35.40;23.37;;;;;;;;;;735711;189;921674;-64
2021/04/21 00:05:54;;;;;;;28.65;21.77;;;;;;;;;;734263;189;919218;-64
2021/04/21 00:08:20;;;;;;;31.67;21.90;;;;;;;;;;730449;189;919042;-65
2021/04/21 00:10:46;;;;;;;35.67;23.80;;;;;;;;;;730731;188;920779;-65
2021/04/21 00:13:12;;;;;;;29.60;21.50;;;;;;;;;;734071;189;918555;-64
2021/04/21 00:15:38;;;;;;;27.30;21.60;;;;;;;;;;743108;189;920721;-65
2021/04/21 00:18:04;;;;;;;32.58;22.80;;;;;;;;;;735230;189;919250;-64
2021/04/21 00:20:31;;;;;;;30.10;21.33;;;;;;;;;;732822;189;915761;-64
2021/04/21 00:22:57;;;;;;;34.70;24.50;;;;;;;;;;744056;189;918839;-64
2021/04/21 00:25:23;;;;;;;36.10;25.87;;;;;;;;;;732513;189;972151;-64
2021/04/21 00:27:48;;;;;;;29.33;21.03;;;;;;;;;;736781;189;918630;-65
2021/04/21 00:30:15;;;;;;;30.48;21.52;;;;;;;;;;740427;189;918393;-63
2021/04/21 00:32:44;;;;;;;31.90;22.07;;;;;;;;;;740373;189;1124746;-65
2021/04/21 00:35:12;;;;;;;34.83;22.67;;;;;;;;;;733175;189;919673;-64
2021/04/21 00:37:37;;;;;;;32.13;22.50;;;;;;;;;;734869;189;919893;-64
2021/04/21 00:40:02;;;;;;;30.17;22.10;;;;;;;;;;743790;189;919600;-64
2021/04/21 00:42:30;;;;;;;30.30;20.30;;;;;;;;;;737719;189;919437;-64
2021/04/21 00:44:58;;;;;;;33.13;20.97;;;;;;;;;;735227;189;917949;-63
2021/04/21 00:47:25;;;;;;;32.27;23.00;;;;;;;;;;737452;189;918736;-63
2021/04/21 00:49:58;;;;;;;31.73;22.03;;;;;;;;;;736435;189;919710;-65
2021/04/21 00:52:27;;;;;;;28.43;22.07;;;;;;;;;;731562;189;919541;-64
2021/04/21 00:54:59;;;;;;;30.57;22.13;;;;;;;;;;728932;189;919711;-64
2021/04/21 00:57:26;;;;;;;26.70;22.00;;;;;;;;;;733199;189;919501;-63
2021/04/21 00:59:58;;;;;;;28.77;23.07;;;;;;;;;;742597;189;919157;-64
2021/04/21 01:02:23;;;;;;;30.23;22.30;;;;;;;;;;735247;189;919120;-64
2021/04/21 01:04:49;;;;;;;31.17;23.63;;;;;;;;;;735639;189;919771;-65
2021/04/21 01:07:15;;;;;;;31.00;21.23;;;;;;;;;;734027;189;996565;-64
2021/04/21 01:09:41;;;;;;;34.90;24.70;;;;;;;;;;739257;189;918915;-64
2021/04/21 01:12:08;;;;;;;30.87;21.90;;;;;;;;;;736034;189;946983;-64
2021/04/21 01:14:33;;;;;;;31.57;23.00;;;;;;;;;;736011;189;919523;-65
2021/04/21 01:17:00;;;;;;;30.87;22.70;;;;;;;;;;738619;189;918853;-64
2021/04/21 01:19:28;;;;;;;27.90;21.10;;;;;;;;;;735683;189;919028;-64
2021/04/21 01:21:54;;;;;;;39.47;24.67;;;;;;;;;;736189;189;919628;-64
2021/04/21 01:24:22;;;;;;;34.20;24.37;;;;;;;;;;735631;189;920107;-64
2021/04/21 01:27:01;;;;;;;36.17;26.40;;;;;;;;;;738270;189;919720;-64
2021/04/21 01:29:29;;;;;;;37.10;24.90;;;;;;;;;;731676;189;942330;-65
2021/04/21 01:31:55;;;;;;;32.43;22.00;;;;;;;;;;733002;189;1013778;-65
2021/04/21 01:34:21;;;;;;;34.00;23.97;;;;;;;;;;736345;189;918806;-65
2021/04/21 01:36:47;;;;;;;36.27;23.13;;;;;;;;;;732384;189;919200;-66
2021/04/21 01:39:13;;;;;;;35.37;23.67;;;;;;;;;;735387;188;919504;-64
2021/04/21 01:41:39;;;;;;;32.10;23.00;;;;;;;;;;736696;189;919932;-65
2021/04/21 01:44:06;;;;;;;33.63;25.20;;;;;;;;;;738582;189;915921;-65
2021/04/21 01:46:32;;;;;;;37.93;24.13;;;;;;;;;;739185;189;1048673;-65
2021/04/21 01:48:57;;;;;;;37.10;25.17;;;;;;;;;;734332;189;925229;-65
2021/04/21 01:51:26;;;;;;;35.13;24.57;;;;;;;;;;744360;189;919058;-64
2021/04/21 01:53:52;;;;;;;31.87;24.17;;;;;;;;;;737220;189;1223228;-64
2021/04/21 01:56:36;;;;;;;34.80;23.67;;;;;;;;;;734507;189;920524;-64
2021/04/21 01:59:04;;;;;;;34.73;23.10;;;;;;;;;;731218;189;919935;-65
2021/04/21 02:01:31;;;;;;;37.07;25.90;;;;;;;;;;727749;189;919862;-65
2021/04/21 02:03:57;;;;;;;37.90;27.00;;;;;;;;;;738500;189;918586;-64
2021/04/21 02:06:29;;;;;;;37.13;25.63;;;;;;;;;;734119;189;920593;-65
2021/04/21 02:09:11;;;;;;;40.33;26.50;;;;;;;;;;732999;189;919326;-65
2021/04/21 02:11:36;;;;;;;33.80;23.40;;;;;;;;;;732665;189;918869;-65
2021/04/21 02:14:08;;;;;;;34.40;26.57;;;;;;;;;;734404;189;919404;-65
2021/04/21 02:16:50;;;;;;;36.70;26.77;;;;;;;;;;742506;189;919468;-65
2021/04/21 02:19:34;;;;;;;36.93;24.43;;;;;;;;;;734854;189;919213;-65
2021/04/21 02:22:06;;;;;;;29.80;23.30;;;;;;;;;;732172;189;919791;-65
2021/04/21 02:24:32;;;;;;;37.90;25.30;;;;;;;;;;739537;189;919317;-65
2021/04/21 02:26:59;;;;;;;33.33;22.77;;;;;;;;;;733806;189;918847;-65
2021/04/21 02:29:30;;;;;;;30.67;22.73;;;;;;;;;;730470;189;919276;-65
2021/04/21 02:32:02;;;;;;;29.50;21.67;;;;;;;;;;743029;189;919166;-65
2021/04/21 02:34:33;;;;;;;30.77;22.30;;;;;;;;;;739570;189;861398;-65
2021/04/21 02:37:02;;;;;;;27.43;21.40;;;;;;;;;;734807;188;919421;-65
2021/04/21 02:39:28;;;;;;;31.83;21.10;;;;;;;;;;728746;189;918607;-65
2021/04/21 02:42:02;;;;;;;28.15;20.17;;;;;;;;;;741012;189;916418;-65
2021/04/21 02:44:33;;;;;;;27.40;18.00;;;;;;;;;;736051;189;913427;-72
2021/04/21 02:47:05;;;;;;;25.57;20.87;;;;;;;;;;735185;189;915731;-65
2021/04/21 02:49:50;;;;;;;31.27;18.93;;;;;;;;;;736480;189;918932;-69
2021/04/21 02:52:18;;;;;;;29.63;19.73;;;;;;;;;;737142;189;922348;-65
2021/04/21 02:54:50;;;;;;;30.00;21.87;;;;;;;;;;731271;189;919624;-66
2021/04/21 02:57:22;;;;;;;24.50;19.97;;;;;;;;;;739322;189;932004;-66
2021/04/21 02:59:52;;;;;;;26.15;18.98;;;;;;;;;;744586;189;919475;-65
2021/04/21 03:02:35;;;;;;;29.87;19.30;;;;;;;;;;735870;189;919398;-65
2021/04/21 03:05:02;;;;;;;31.23;19.73;;;;;;;;;;725207;189;921528;-65
2021/04/21 03:07:31;;;;;;;26.45;17.75;;;;;;;;;;732486;189;919491;-66
2021/04/21 03:09:58;;;;;;;23.60;17.93;;;;;;;;;;736280;189;918281;-66
2021/04/21 03:12:23;;;;;;;26.47;19.33;;;;;;;;;;738444;189;918107;-66
2021/04/21 03:14:49;;;;;;;28.53;19.87;;;;;;;;;;736143;189;919607;-66
2021/04/21 03:17:15;;;;;;;28.92;19.92;;;;;;;;;;730306;189;919569;-66
2021/04/21 03:19:43;;;;;;;26.20;19.77;;;;;;;;;;734887;189;921356;-66
2021/04/21 03:22:13;;;;;;;28.50;20.00;;;;;;;;;;731135;189;1063996;-66
2021/04/21 03:24:35;;;;;;;25.07;19.37;;;;;;;;;;737817;189;918862;-67
2021/04/21 03:27:02;;;;;;;27.90;20.62;;;;;;;;;;733776;189;1021116;-66
2021/04/21 03:29:38;;;;;;;29.97;21.10;;;;;;;;;;736237;189;1016657;-67
2021/04/21 03:32:04;;;;;;;26.70;19.33;;;;;;;;;;733068;189;916893;-65
2021/04/21 03:34:30;;;;;;;31.13;20.33;;;;;;;;;;730451;189;919300;-68
2021/04/21 03:36:55;;;;;;;34.80;22.73;;;;;;;;;;733127;189;919130;-65
2021/04/21 03:39:21;;;;;;;32.43;22.17;;;;;;;;;;742102;186;919498;-66
2021/04/21 03:41:47;;;;;;;31.63;24.10;;;;;;;;;;731568;189;935040;-65
2021/04/21 03:44:13;;;;;;;29.15;22.17;;;;;;;;;;733861;189;919095;-65
2021/04/21 03:46:39;;;;;;;27.23;22.53;;;;;;;;;;740660;189;919134;-66
2021/04/21 03:49:05;;;;;;;30.88;22.45;;;;;;;;;;735356;188;918490;-64
2021/04/21 03:51:31;;;;;;;28.63;21.77;;;;;;;;;;736145;189;919524;-66
2021/04/21 03:53:56;;;;;;;28.40;21.83;;;;;;;;;;739769;189;919602;-65
2021/04/21 03:56:23;;;;;;;36.07;23.70;;;;;;;;;;738500;189;1021762;-66
2021/04/21 03:58:49;;;;;;;28.35;22.83;;;;;;;;;;730196;189;1020370;-66
2021/04/21 04:01:15;;;;;;;42.67;24.20;;;;;;;;;;740250;189;919276;-65
2021/04/21 04:03:41;;;;;;;29.93;22.50;;;;;;;;;;728523;190;625594;-66
2021/04/21 04:06:09;;;;;;;27.90;20.97;;;;;;;;;;735671;189;918902;-66
2021/04/21 04:08:38;;;;;;;29.70;23.20;;;;;;;;;;737972;189;920597;-64
2021/04/21 04:11:04;;;;;;;35.07;23.60;;;;;;;;;;739582;189;919041;-65
2021/04/21 04:13:30;;;;;;;31.37;22.87;;;;;;;;;;732987;189;918707;-67
2021/04/21 04:15:56;;;;;;;33.63;23.20;;;;;;;;;;737512;189;920869;-66
2021/04/21 04:18:21;;;;;;;29.33;21.80;;;;;;;;;;738882;189;1016117;-65
2021/04/21 04:20:47;;;;;;;34.77;22.70;;;;;;;;;;732449;189;915391;-65
2021/04/21 04:23:13;;;;;;;33.03;25.00;;;;;;;;;;735661;189;916080;-67
2021/04/21 04:25:39;;;;;;;33.57;23.47;;;;;;;;;;736078;189;919559;-67
2021/04/21 04:28:07;;;;;;;41.70;24.90;;;;;;;;;;736660;189;913867;-66
2021/04/21 04:30:31;;;;;;;31.07;23.67;;;;;;;;;;733908;189;918039;-66
2021/04/21 04:32:57;;;;;;;36.33;23.33;;;;;;;;;;728060;190;919456;-66
2021/04/21 04:35:25;;;;;;;40.27;27.60;;;;;;;;;;740752;189;918334;-67
2021/04/21 04:37:51;;;;;;;37.30;26.90;;;;;;;;;;736654;189;918903;-66
2021/04/21 04:40:18;;;;;;;41.17;28.17;;;;;;;;;;735899;189;919573;-66
2021/04/21 04:42:43;;;;;;;43.67;30.43;;;;;;;;;;742233;189;919748;-66
2021/04/21 04:45:09;;;;;;;43.07;27.63;;;;;;;;;;727931;189;920099;-66
2021/04/21 04:47:50;;;;;;;47.77;30.37;;;;;;;;;;737236;189;919731;-66
2021/04/21 04:50:16;;;;;;;41.60;29.60;;;;;;;;;;734740;189;918939;-66
2021/04/21 04:52:43;;;;;;;55.07;33.60;;;;;;;;;;736957;189;919634;-64
2021/04/21 04:55:10;;;;;;;44.27;31.90;;;;;;;;;;738757;189;918963;-66
2021/04/21 04:57:37;;;;;;;49.73;34.17;;;;;;;;;;721732;189;919173;-66
2021/04/21 05:00:04;;;;;;;51.63;32.20;;;;;;;;;;735099;187;919000;-65
2021/04/21 05:02:29;;;;;;;50.38;34.28;;;;;;;;;;741265;189;921276;-67
2021/04/21 05:04:58;;;;;;;55.17;35.20;;;;;;;;;;733217;189;1020386;-67
2021/04/21 05:07:24;;;;;;;63.58;38.97;;;;;;;;;;737696;189;918295;-67
2021/04/21 05:09:50;;;;;;;61.37;38.97;;;;;;;;;;737334;189;919391;-65
2021/04/21 05:12:16;;;;;;;76.03;41.07;;;;;;;;;;738476;189;919588;-66
2021/04/21 05:14:42;;;;;;;79.20;38.27;;;;;;;;;;732669;189;919596;-66
2021/04/21 05:17:09;;;;;;;61.90;39.13;;;;;;;;;;732467;189;965546;-65
2021/04/21 05:19:42;;;;;;;84.07;40.77;;;;;;;;;;741695;189;919346;-65
2021/04/21 05:22:08;;;;;;;76.47;38.03;;;;;;;;;;738976;189;918915;-65
2021/04/21 05:24:39;;;;;;;76.03;41.20;;;;;;;;;;732011;189;1021633;-65
2021/04/21 05:27:12;;;;;;;77.90;43.37;;;;;;;;;;736393;189;919017;-64
2021/04/21 05:29:44;;;;;;;67.95;43.78;;;;;;;;;;738747;189;918699;-63
2021/04/21 05:32:12;;;;;;;66.07;41.00;;;;;;;;;;731813;189;918658;-64
2021/04/21 05:34:56;;;;;;;68.87;42.77;;;;;;;;;;734019;189;920789;-65
2021/04/21 05:37:28;;;;;;;71.93;44.17;;;;;;;;;;729374;189;924049;-65
2021/04/21 05:39:55;;;;;;;70.30;44.50;;;;;;;;;;737388;189;631513;-67
2021/04/21 05:42:36;;;;;;;77.27;47.63;;;;;;;;;;733491;189;628050;-65
2021/04/21 05:45:08;;;;;;;85.07;49.90;;;;;;;;;;723672;189;639307;-65
2021/04/21 05:47:40;;;;;;;87.93;49.03;;;;;;;;;;740480;189;624306;-65
2021/04/21 05:50:06;;;;;;;94.93;52.83;;;;;;;;;;740668;189;635548;-68
2021/04/21 05:52:38;;;;;;;108.90;55.83;;;;;;;;;;730786;189;623355;-65
2021/04/21 05:55:06;;;;;;;119.93;60.97;;;;;;;;;;735693;189;632977;-65
2021/04/21 05:57:37;;;;;;;119.23;60.53;;;;;;;;;;740553;189;628661;-65
2021/04/21 06:00:09;;;;;;;102.77;56.47;;;;;;;;;;745192;189;621733;-65
2021/04/21 06:02:35;;;;;;;87.67;54.20;;;;;;;;;;732655;189;1494436;-65
2021/04/21 06:05:04;;;;;;;94.23;55.50;;;;;;;;;;737887;189;616437;-65
2021/04/21 06:07:30;;;;;;;75.23;47.27;;;;;;;;;;737114;189;648468;-66
2021/04/21 06:09:56;;;;;;;61.37;43.20;;;;;;;;;;742355;187;622133;-65
2021/04/21 06:12:22;;;;;;;82.77;44.47;;;;;;;;;;739091;189;644534;-66
2021/04/21 06:14:48;;;;;;;57.47;37.53;;;;;;;;;;733459;189;626279;-65
2021/04/21 06:17:14;;;;;;;55.07;38.47;;;;;;;;;;746695;189;626214;-65
2021/04/21 06:19:40;;;;;;;52.47;36.37;;;;;;;;;;739666;189;632413;-66
2021/04/21 06:22:05;;;;;;;48.33;36.23;;;;;;;;;;737382;189;628406;-64
2021/04/21 06:24:31;;;;;;;50.77;35.30;;;;;;;;;;743515;189;709895;-64
2021/04/21 06:27:03;;;;;;;50.07;34.00;;;;;;;;;;735490;189;636374;-65
2021/04/21 06:29:29;;;;;;;53.00;36.00;;;;;;;;;;737705;189;631739;-65
2021/04/21 06:31:55;;;;;;;42.67;32.03;;;;;;;;;;740225;189;625668;-65
2021/04/21 06:34:21;;;;;;;43.43;32.30;;;;;;;;;;738711;189;627279;-64
2021/04/21 06:36:47;;;;;;;42.17;30.87;;;;;;;;;;737299;189;616158;-65
2021/04/21 06:39:14;;;;;;;42.07;31.77;;;;;;;;;;733016;189;657485;-65
2021/04/21 06:41:39;;;;;;;37.00;26.90;;;;;;;;;;739392;189;637490;-64
2021/04/21 06:44:05;;;;;;;36.20;28.77;;;;;;;;;;733682;189;677393;-65
2021/04/21 06:46:32;;;;;;;39.90;29.07;;;;;;;;;;740284;189;633491;-65
2021/04/21 06:48:59;;;;;;;36.35;26.73;;;;;;;;;;738144;189;624246;-65
2021/04/21 06:51:25;;;;;;;37.93;28.33;;;;;;;;;;740625;189;728039;-65
2021/04/21 06:53:52;;;;;;;33.07;25.70;;;;;;;;;;735632;189;639747;-65
2021/04/21 06:56:17;;;;;;;32.20;25.33;;;;;;;;;;731483;189;636002;-63
2021/04/21 06:58:43;;;;;;;29.73;22.10;;;;;;;;;;741779;189;621950;-65
2021/04/21 07:01:10;;;;;;;30.70;22.40;;;;;;;;;;736291;189;626264;-65
2021/04/21 07:03:36;;;;;;;37.57;21.70;;;;;;;;;;741800;189;781402;-65
2021/04/21 07:06:02;;;;;;;33.67;24.13;;;;;;;;;;737635;189;628954;-65
2021/04/21 07:08:28;;;;;;;32.83;23.10;;;;;;;;;;737778;189;630256;-65
2021/04/21 07:10:54;;;;;;;35.10;23.30;;;;;;;;;;733396;189;641629;-65
2021/04/21 07:13:25;;;;;;;30.33;24.13;;;;;;;;;;741165;189;618460;-65
2021/04/21 07:15:51;;;;;;;31.83;23.63;;;;;;;;;;739959;186;627776;-65
2021/04/21 07:18:16;;;;;;;30.77;22.87;;;;;;;;;;741058;189;624516;-67
2021/04/21 07:20:42;;;;;;;32.30;24.53;;;;;;;;;;738528;189;627059;-67
2021/04/21 07:23:09;;;;;;;29.23;22.80;;;;;;;;;;745319;188;637880;-66
2021/04/21 07:25:34;;;;;;;29.90;22.07;;;;;;;;;;739080;189;625505;-65
2021/04/21 07:28:00;;;;;;;34.43;23.63;;;;;;;;;;734624;189;629784;-66
2021/04/21 07:30:27;;;;;;;27.17;21.87;;;;;;;;;;737050;189;669706;-67
2021/04/21 07:32:53;;;;;;;30.07;23.70;;;;;;;;;;727817;189;677385;-65
2021/04/21 07:35:19;;;;;;;29.43;24.37;;;;;;;;;;737317;189;635447;-65
2021/04/21 07:37:45;;;;;;;33.30;24.60;;;;;;;;;;735910;189;630077;-66
2021/04/21 07:40:17;;;;;;;29.27;22.07;;;;;;;;;;742962;189;627026;-65
2021/04/21 07:42:43;;;;;;;35.47;20.70;;;;;;;;;;735801;189;628903;-67
2021/04/21 07:45:09;;;;;;;27.43;22.93;;;;;;;;;;739523;189;626412;-66
2021/04/21 07:47:35;;;;;;;31.57;23.40;;;;;;;;;;739585;189;635258;-65
2021/04/21 07:50:01;;;;;;;29.50;19.87;;;;;;;;;;745213;186;640946;-67
2021/04/21 07:52:28;;;;;;;27.30;19.60;;;;;;;;;;734682;189;678070;-66
2021/04/21 07:55:00;;;;;;;25.63;19.17;;;;;;;;;;736637;189;918280;-64
2021/04/21 07:57:26;;;;;;;26.37;20.90;;;;;;;;;;734679;189;890775;-66
2021/04/21 07:59:51;;;;;;;23.48;18.40;;;;;;;;;;736693;189;919357;-65
2021/04/21 08:02:19;;;;;;;25.07;19.10;;;;;;;;;;732829;189;967505;-65
2021/04/21 08:04:47;;;;;;;27.57;20.20;;;;;;;;;;734751;189;1130277;-65
2021/04/21 08:07:13;;;;;;;25.23;19.40;;;;;;;;;;744630;186;919230;-68
2021/04/21 08:09:39;;;;;;;26.47;19.63;;;;;;;;;;735789;189;919781;-65
2021/04/21 08:12:11;;;;;;;23.30;18.97;;;;;;;;;;729244;189;942915;-68
2021/04/21 08:14:36;;;;;;;24.97;19.07;;;;;;;;;;739711;189;918669;-66
2021/04/21 08:17:02;;;;;;;21.80;18.73;;;;;;;;;;736859;189;919152;-66
2021/04/21 08:19:28;;;;;;;23.43;18.30;;;;;;;;;;734305;189;917962;-65
2021/04/21 08:21:54;;;;;;;24.80;19.17;;;;;;;;;;731528;189;1122777;-65
2021/04/21 08:24:20;;;;;;;22.77;19.30;;;;;;;;;;739670;189;919482;-65
2021/04/21 08:26:46;;;;;;;28.10;21.43;;;;;;;;;;736129;189;920134;-65
2021/04/21 08:29:13;;;;;;;23.67;19.13;;;;;;;;;;730067;189;919254;-65
2021/04/21 08:31:38;;;;;;;26.53;21.67;;;;;;;;;;738564;189;919287;-65
2021/04/21 08:34:04;;;;;;;26.37;21.30;;;;;;;;;;730756;189;918288;-65
2021/04/21 08:36:30;;;;;;;31.20;23.60;;;;;;;;;;736780;189;918683;-65
2021/04/21 08:38:56;;;;;;;26.27;22.07;;;;;;;;;;740051;189;908215;-66
2021/04/21 08:41:21;;;;;;;27.10;20.33;;;;;;;;;;741861;189;916482;-66
2021/04/21 08:43:47;;;;;;;26.03;21.03;;;;;;;;;;735066;189;1019504;-65
2021/04/21 08:46:13;;;;;;;27.73;21.23;;;;;;;;;;738630;189;915072;-63
2021/04/21 08:48:39;;;;;;;30.10;23.87;;;;;;;;;;732905;189;916384;-64
2021/04/21 08:51:05;;;;;;;23.90;19.93;;;;;;;;;;734973;189;915148;-64
2021/04/21 08:53:31;;;;;;;31.35;22.00;;;;;;;;;;735269;189;1003252;-63
2021/04/21 08:55:57;;;;;;;22.87;20.03;;;;;;;;;;739613;189;919438;-64
2021/04/21 08:58:23;;;;;;;32.60;23.77;;;;;;;;;;739426;189;879286;-65
2021/04/21 09:00:48;;;;;;;31.83;22.77;;;;;;;;;;731526;189;1417280;-64
2021/04/21 09:03:14;;;;;;;27.73;21.30;;;;;;;;;;737059;189;920175;-64
2021/04/21 09:05:40;;;;;;;26.20;21.17;;;;;;;;;;731705;189;921094;-64
2021/04/21 09:08:08;;;;;;;23.63;20.50;;;;;;;;;;735181;189;919188;-65
2021/04/21 09:10:32;;;;;;;24.30;21.57;;;;;;;;;;736478;189;918211;-65
2021/04/21 09:12:58;;;;;;;30.00;21.20;;;;;;;;;;736334;189;919330;-64
2021/04/21 09:15:23;;;;;;;26.13;19.93;;;;;;;;;;733213;189;919748;-64
2021/04/21 09:17:49;;;;;;;27.60;22.13;;;;;;;;;;734319;189;918987;-64
2021/04/21 09:20:15;;;;;;;26.47;19.70;;;;;;;;;;739856;189;852130;-65
2021/04/21 09:22:47;;;;;;;25.00;20.60;;;;;;;;;;733005;189;919525;-64
2021/04/21 09:25:13;;;;;;;31.27;22.13;;;;;;;;;;733070;189;939350;-64
2021/04/21 09:27:39;;;;;;;26.23;21.47;;;;;;;;;;737317;189;918392;-65
2021/04/21 09:30:08;;;;;;;30.30;21.00;;;;;;;;;;732875;189;918906;-64
2021/04/21 09:32:34;;;;;;;25.00;19.13;;;;;;;;;;733677;189;1455983;-66
2021/04/21 09:35:00;;;;;;;25.30;20.17;;;;;;;;;;734730;189;920500;-65
2021/04/21 09:37:25;;;;;;;25.60;20.30;;;;;;;;;;738269;189;919469;-65
2021/04/21 09:39:51;;;;;;;24.33;20.47;;;;;;;;;;732605;189;923265;-66
2021/04/21 09:42:17;;;;;;;26.42;21.30;;;;;;;;;;726955;189;1019586;-65
2021/04/21 09:44:46;;;;;;;29.87;21.50;;;;;;;;;;737302;189;920224;-66
2021/04/21 09:47:13;;;;;;;24.60;19.67;;;;;;;;;;736420;187;917504;-66
2021/04/21 09:49:38;;;;;;;27.67;21.53;;;;;;;;;;733203;189;919991;-65
2021/04/21 09:52:06;;;;;;;29.33;23.20;;;;;;;;;;729413;189;950359;-65
2021/04/21 09:54:32;;;;;;;24.00;19.80;;;;;;;;;;725251;193;915252;-65
2021/04/21 09:57:04;;;;;;;32.90;19.70;;;;;;;;;;736223;189;915949;-64
2021/04/21 09:59:30;;;;;;;21.90;18.17;;;;;;;;;;738333;189;915005;-65
2021/04/21 10:01:56;;;;;;;24.27;18.30;;;;;;;;;;736454;189;920211;-66
2021/04/21 10:04:25;;;;;;;28.35;19.30;;;;;;;;;;736419;189;915724;-66
2021/04/21 10:06:50;;;;;;;25.73;20.03;;;;;;;;;;739111;189;915598;-66
2021/04/21 10:09:23;;;;;;;24.73;18.40;;;;;;;;;;734193;189;919212;-65
2021/04/21 10:11:48;;;;;;;22.43;14.80;;;;;;;;;;737260;189;919900;-65
2021/04/21 10:14:14;;;;;;;25.20;19.20;;;;;;;;;;733577;189;919456;-66
2021/04/21 10:16:40;;;;;;;26.53;19.20;;;;;;;;;;733453;189;920401;-66
2021/04/21 10:19:05;;;;;;;24.50;19.70;;;;;;;;;;734284;189;919405;-64
2021/04/21 10:21:33;;;;;;;35.87;21.70;;;;;;;;;;744798;186;915803;-66
2021/04/21 10:23:57;;;;;;;27.67;19.00;;;;;;;;;;732750;189;916093;-64
2021/04/21 10:26:23;;;;;;;22.33;17.87;;;;;;;;;;732133;189;915357;-65
2021/04/21 10:28:49;;;;;;;20.77;15.27;;;;;;;;;;736373;189;1193443;-66
2021/04/21 10:31:15;;;;;;;25.30;18.98;;;;;;;;;;735080;189;952067;-66
2021/04/21 10:33:41;;;;;;;21.30;17.47;;;;;;;;;;732775;189;919823;-64
2021/04/21 10:36:07;;;;;;;23.63;17.07;;;;;;;;;;740572;189;917592;-65
2021/04/21 10:38:33;;;;;;;21.40;16.30;;;;;;;;;;732696;189;998346;-65
2021/04/21 10:41:04;;;;;;;25.30;17.60;;;;;;;;;;737667;189;918843;-66
2021/04/21 10:43:37;;;;;;;21.00;15.33;;;;;;;;;;734166;189;919425;-66
2021/04/21 10:46:03;;;;;;;24.87;17.20;;;;;;;;;;737056;189;919411;-65
2021/04/21 10:48:35;;;;;;;24.40;18.70;;;;;;;;;;732676;189;904794;-66
2021/04/21 10:51:00;;;;;;;25.07;17.60;;;;;;;;;;733384;189;919718;-66
2021/04/21 10:53:42;;;;;;;24.27;16.83;;;;;;;;;;734029;189;908096;-66
2021/04/21 10:56:14;;;;;;;24.23;15.93;;;;;;;;;;735114;189;920002;-66
2021/04/21 10:58:45;;;;;;;22.93;16.33;;;;;;;;;;739935;188;918945;-65
2021/04/21 11:01:18;;;;;;;20.60;16.47;;;;;;;;;;740049;189;919396;-64
2021/04/21 11:03:44;;;;;;;23.07;16.60;;;;;;;;;;727601;189;920876;-66
2021/04/21 11:06:10;;;;;;;33.83;16.55;;;;;;;;;;733501;189;922923;-67
2021/04/21 11:08:53;;;;;;;21.57;16.13;;;;;;;;;;739637;189;919568;-63
2021/04/21 11:11:19;;;;;;;21.73;16.50;;;;;;;;;;740519;189;918814;-64
2021/04/21 11:13:47;;;;;;;22.50;16.17;;;;;;;;;;735763;189;919439;-65
2021/04/21 11:16:26;;;;;;;23.80;15.30;;;;;;;;;;734022;189;915144;-65
2021/04/21 11:18:52;;;;;;;21.33;17.20;;;;;;;;;;729530;189;922549;-66
2021/04/21 11:21:18;;;;;;;18.42;14.50;;;;;;;;;;732743;189;920114;-64
2021/04/21 11:23:56;;;;;;;20.87;16.20;;;;;;;;;;740291;186;919131;-67
2021/04/21 11:26:31;;;;;;;20.77;14.30;;;;;;;;;;735897;189;919291;-66
2021/04/21 11:28:59;;;;;;;16.40;12.95;;;;;;;;;;736097;189;1124824;-65
2021/04/21 11:31:31;;;;;;;19.50;13.60;;;;;;;;;;732580;189;915517;-66
2021/04/21 11:33:57;;;;;;;16.97;14.23;;;;;;;;;;737121;189;914356;-65
2021/04/21 11:36:28;;;;;;;21.43;14.60;;;;;;;;;;743707;185;916487;-66
2021/04/21 11:38:54;;;;;;;21.30;14.17;;;;;;;;;;735397;189;916768;-66
2021/04/21 11:41:20;;;;;;;21.60;14.00;;;;;;;;;;733830;189;916217;-67
2021/04/21 11:43:46;;;;;;;14.00;11.30;;;;;;;;;;739973;189;916323;-65
2021/04/21 11:46:12;;;;;;;21.03;15.10;;;;;;;;;;726610;189;916513;-65
2021/04/21 11:48:37;;;;;;;20.17;16.57;;;;;;;;;;734978;189;914274;-66
2021/04/21 11:51:10;;;;;;;19.63;15.03;;;;;;;;;;736895;189;915720;-64
2021/04/21 11:53:36;;;;;;;20.53;15.17;;;;;;;;;;731105;189;2575242;-67
2021/04/21 11:56:06;;;;;;;20.30;15.00;;;;;;;;;;729314;189;1503299;-66
2021/04/21 11:58:27;;;;;;;22.53;14.70;;;;;;;;;;735854;189;921608;-65
2021/04/21 12:00:54;;;;;;;20.37;14.70;;;;;;;;;;735986;189;917381;-66
2021/04/21 12:03:20;;;;;;;19.03;14.10;;;;;;;;;;732879;189;916013;-64
2021/04/21 12:05:46;;;;;;;16.43;12.10;;;;;;;;;;729833;189;918882;-67
2021/04/21 12:08:12;;;;;;;17.40;13.85;;;;;;;;;;728470;189;920253;-65
2021/04/21 12:10:38;;;;;;;21.10;14.30;;;;;;;;;;743482;188;947057;-65
2021/04/21 12:13:09;;;;;;;18.30;13.43;;;;;;;;;;733083;189;917453;-65
2021/04/21 12:15:35;;;;;;;17.90;14.00;;;;;;;;;;736925;189;918213;-64
2021/04/21 12:18:04;;;;;;;17.63;14.17;;;;;;;;;;740843;189;919681;-66
2021/04/21 12:20:27;;;;;;;18.87;12.90;;;;;;;;;;737397;189;919210;-65
2021/04/21 12:22:53;;;;;;;19.27;13.00;;;;;;;;;;735064;189;919754;-64
2021/04/21 12:25:20;;;;;;;15.60;13.00;;;;;;;;;;744378;189;898280;-66
2021/04/21 12:27:45;;;;;;;20.03;13.73;;;;;;;;;;734196;189;920053;-64
2021/04/21 12:30:11;;;;;;;19.40;14.37;;;;;;;;;;738961;189;918374;-65
2021/04/21 12:32:37;;;;;;;17.10;12.17;;;;;;;;;;734668;189;919484;-65
2021/04/21 12:35:03;;;;;;;19.20;13.43;;;;;;;;;;738659;189;921298;-65
2021/04/21 12:37:29;;;;;;;20.23;15.17;;;;;;;;;;731047;189;919511;-65
2021/04/21 12:39:55;;;;;;;21.17;15.32;;;;;;;;;;735902;189;920531;-66
2021/04/21 12:42:21;;;;;;;12.33;10.20;;;;;;;;;;743326;189;919150;-65
2021/04/21 12:44:47;;;;;;;17.90;12.00;;;;;;;;;;734078;189;919790;-63
2021/04/21 12:47:13;;;;;;;12.10;9.10;;;;;;;;;;737860;189;920504;-67
2021/04/21 12:49:41;;;;;;;13.97;10.70;;;;;;;;;;736848;189;918396;-66
2021/04/21 12:52:07;;;;;;;10.63;8.47;;;;;;;;;;738919;189;920041;-66
2021/04/21 12:54:34;;;;;;;11.33;8.23;;;;;;;;;;735839;189;916630;-64
2021/04/21 12:56:59;;;;;;;9.20;6.50;;;;;;;;;;733943;189;916877;-64
2021/04/21 12:59:25;;;;;;;10.00;6.10;;;;;;;;;;736386;189;918521;-65
2021/04/21 13:01:51;;;;;;;8.13;5.27;;;;;;;;;;737517;189;915741;-64
2021/04/21 13:04:18;;;;;;;6.10;5.00;;;;;;;;;;731453;189;1238337;-65
2021/04/21 13:06:43;;;;;;;6.20;4.00;;;;;;;;;;739796;189;919258;-65
2021/04/21 13:09:09;;;;;;;7.60;5.73;;;;;;;;;;732255;189;918520;-65
2021/04/21 13:11:35;;;;;;;6.10;4.68;;;;;;;;;;731503;189;919579;-64
2021/04/21 13:14:02;;;;;;;10.88;4.90;;;;;;;;;;722498;193;920103;-63
2021/04/21 13:16:28;;;;;;;6.40;5.10;;;;;;;;;;735451;189;920411;-64
2021/04/21 13:18:55;;;;;;;7.33;5.90;;;;;;;;;;733117;189;919462;-65
2021/04/21 13:21:20;;;;;;;6.27;4.77;;;;;;;;;;735311;187;918301;-64
2021/04/21 13:23:50;;;;;;;8.07;5.67;;;;;;;;;;742573;189;919655;-64
2021/04/21 13:26:16;;;;;;;7.70;6.30;;;;;;;;;;736532;189;919458;-65
2021/04/21 13:28:42;;;;;;;7.33;5.93;;;;;;;;;;733001;189;922978;-66
2021/04/21 13:31:10;;;;;;;7.70;6.20;;;;;;;;;;738810;189;918890;-65
2021/04/21 13:33:36;;;;;;;11.23;6.50;;;;;;;;;;741390;189;919496;-64
2021/04/21 13:36:01;;;;;;;7.78;6.72;;;;;;;;;;733361;189;919759;-65
2021/04/21 13:38:27;;;;;;;5.90;4.87;;;;;;;;;;735492;189;917469;-65
2021/04/21 13:40:53;;;;;;;12.43;6.80;;;;;;;;;;736645;189;918100;-64
2021/04/21 13:43:19;;;;;;;7.67;5.63;;;;;;;;;;734356;189;920818;-65
2021/04/21 13:45:45;;;;;;;8.90;6.00;;;;;;;;;;734307;189;915330;-64
2021/04/21 13:48:11;;;;;;;10.23;5.83;;;;;;;;;;740648;189;920263;-65
2021/04/21 13:50:36;;;;;;;7.63;6.17;;;;;;;;;;731692;189;1424022;-64
2021/04/21 13:53:02;;;;;;;8.50;6.87;;;;;;;;;;736519;189;917366;-64
2021/04/21 13:55:28;;;;;;;9.13;6.30;;;;;;;;;;738458;189;918836;-66
2021/04/21 13:57:54;;;;;;;12.30;7.00;;;;;;;;;;732616;189;1019941;-65
2021/04/21 14:00:21;;;;;;;8.50;6.93;;;;;;;;;;734302;189;959999;-64
2021/04/21 14:02:46;;;;;;;9.07;6.80;;;;;;;;;;732976;189;918916;-64
2021/04/21 14:05:13;;;;;;;8.30;7.00;;;;;;;;;;739710;189;921825;-67
2021/04/21 14:07:39;;;;;;;9.20;7.40;;;;;;;;;;732284;189;1003464;-65